Time;durP1;ratioP1;P1;durP2;ratioP2;P2;SDS_P1;SDS_P2;PMS_P1;PMS_P2;Temp;Humidity;BMP_temperature;BMP_pressure;BME280_temperature;BME280_humidity;BME280_pressure;Samples;Min_cycle;Max_cycle;Signal;HPM_P1;HPM_P2
2023/10/06 00:02:28;;;;;;;;;;;;;;;12.64;97.67;102469.59;4889264;29;20563;-96
2023/10/06 00:04:53;;;;;;;;;;;;;;;12.62;98.59;102472.16;4907701;29;19915;-96
2023/10/06 00:07:21;;;;;;;;;;;;;;;12.60;97.87;102472.91;4927892;29;19938;-96
2023/10/06 00:09:47;;;;;;;;;;;;;;;12.59;98.12;102466.78;4927758;29;20501;-96
2023/10/06 00:12:13;;;;;;;;;;;;;;;12.58;97.91;102464.13;4928455;29;20384;-96
2023/10/06 00:14:42;;;;;;;;;;;;;;;12.56;97.93;102471.00;4927844;29;19926;-96
2023/10/06 00:17:17;;;;;;;;;;;;;;;12.53;98.48;102464.81;4926701;29;19954;-96
2023/10/06 00:19:51;;;;;;;;;;;;;;;12.52;98.10;102465.63;4927255;29;19915;-96
2023/10/06 00:22:22;;;;;;;;;;;;;;;12.49;99.36;102467.25;4926340;29;19922;-96
2023/10/06 00:24:55;;;;;;;;;;;;;;;12.48;99.57;102473.28;4926039;29;19953;-96
2023/10/06 00:27:24;;;;;;;;;;;;;;;12.45;98.91;102470.56;4925934;29;19993;-96
2023/10/06 00:29:58;;;;;;;;;;;;;;;12.44;99.14;102464.44;4923843;29;19919;-96
2023/10/06 00:32:31;;;;;;;;;;;;;;;12.43;100.00;102464.38;4925360;29;20289;-96
2023/10/06 00:35:16;;;;;;;;;;;;;;;12.41;100.00;102464.31;4925324;29;19946;-96
2023/10/06 00:37:41;;;;;;;;;;;;;;;12.39;99.94;102463.34;4927165;29;19921;-96
2023/10/06 00:40:11;;;;;;;;;;;;;;;12.39;100.00;102462.47;4927167;29;19919;-96
2023/10/06 00:42:48;;;;;;;;;;;;;;;12.38;100.00;102460.66;4926753;29;19915;-96
2023/10/06 00:45:16;;;;;;;;;;;;;;;12.35;100.00;102454.50;4925751;29;19922;-96
2023/10/06 00:47:43;;;;;;;;;;;;;;;12.32;100.00;102459.56;4924945;29;19915;-96
2023/10/06 00:50:12;;;;;;;;;;;;;;;12.32;100.00;102456.06;4924594;29;19921;-96
2023/10/06 00:52:39;;;;;;;;;;;;;;;12.30;100.00;102453.38;4926386;29;19938;-96
2023/10/06 00:55:08;;;;;;;;;;;;;;;12.28;100.00;102460.28;4924600;29;19922;-96
2023/10/06 00:57:46;;;;;;;;;;;;;;;12.27;100.00;102462.84;4924528;29;19915;-96
2023/10/06 01:03:10;;;;;;;;;;;;;;;12.20;100.00;102450.34;4941169;29;19921;-96
2023/10/06 01:05:39;;;;;;;;;;;;;;;12.17;100.00;102446.75;4924937;29;19989;-96
2023/10/06 01:08:05;;;;;;;;;;;;;;;12.14;100.00;102436.16;4925655;29;19915;-96
2023/10/06 01:10:34;;;;;;;;;;;;;;;12.14;100.00;102444.00;4925514;29;20321;-96
2023/10/06 01:13:18;;;;;;;;;;;;;;;12.12;100.00;102434.31;4923845;29;19923;-96
2023/10/06 01:15:56;;;;;;;;;;;;;;;12.10;100.00;102430.75;4923751;29;19915;-96
2023/10/06 01:18:26;;;;;;;;;;;;;;;12.10;100.00;102426.41;4921990;29;20453;-96
2023/10/06 01:20:52;;;;;;;;;;;;;;;12.09;100.00;102421.13;4922921;29;19929;-96
2023/10/06 02:29:36;;;;;;;;;;;;;;;11.78;100.00;102411.94;4935264;29;19930;-96
2023/10/06 02:32:01;;;;;;;;;;;;;;;11.78;100.00;102404.09;4904414;29;19974;-96
2023/10/06 02:34:35;;;;;;;;;;;;;;;11.76;100.00;102417.09;4905119;29;19923;-96
2023/10/06 02:37:01;;;;;;;;;;;;;;;11.75;100.00;102414.41;4909941;29;19915;-96
2023/10/06 02:39:38;;;;;;;;;;;;;;;11.73;100.00;102409.13;4908500;29;19916;-96
2023/10/06 02:42:09;;;;;;;;;;;;;;;11.72;100.00;102403.84;4908217;29;19916;-96
2023/10/06 02:44:38;;;;;;;;;;;;;;;11.71;100.00;102402.91;4908699;29;19923;-96
2023/10/06 02:47:15;;;;;;;;;;;;;;;11.68;100.00;102399.28;4905445;29;19915;-96
2023/10/06 02:49:48;;;;;;;;;;;;;;;11.68;100.00;102401.91;4907902;29;19915;-96
2023/10/06 02:52:37;;;;;;;;;;;;;;;11.66;100.00;102407.94;4907292;29;20373;-96
2023/10/06 02:55:19;;;;;;;;;;;;;;;11.67;100.00;102403.59;4906304;29;19915;-96
2023/10/06 02:57:55;;;;;;;;;;;;;;;11.66;100.00;102400.13;4906969;29;19915;-96
2023/10/06 03:03:12;;;;;;;;;;;;;;;11.63;100.00;102389.53;4923223;29;20401;-96
2023/10/06 03:05:42;;;;;;;;;;;;;;;11.59;100.00;102387.63;4907910;29;20388;-96
2023/10/06 03:08:18;;;;;;;;;;;;;;;11.59;100.00;102379.78;4907412;29;19915;-96
2023/10/06 03:10:44;;;;;;;;;;;;;;;11.56;100.00;102373.53;4908114;29;19915;-96
2023/10/06 03:16:11;;;;;;;;;;;;;;;11.53;100.00;102376.91;4871955;29;20002;-96
2023/10/06 03:18:52;;;;;;;;;;;;;;;11.51;100.00;102386.38;4907495;29;20059;-96
2023/10/06 03:21:18;;;;;;;;;;;;;;;11.52;100.00;102382.06;4907960;29;19915;-96
2023/10/06 03:23:47;;;;;;;;;;;;;;;11.49;100.00;102383.69;4907118;29;19926;-96
2023/10/06 03:26:22;;;;;;;;;;;;;;;11.47;100.00;102389.66;4908090;29;20278;-96
2023/10/06 03:28:52;;;;;;;;;;;;;;;11.48;100.00;102389.75;4908164;29;19915;-96
2023/10/06 03:33:47;;;;;;;;;;;;;;;11.46;100.00;102385.28;4944620;29;20029;-96
2023/10/06 03:36:15;;;;;;;;;;;;;;;11.44;100.00;102384.31;4927428;29;19969;-96
2023/10/06 03:38:44;;;;;;;;;;;;;;;11.42;100.00;102392.06;4928670;29;19915;-96
2023/10/06 03:41:24;;;;;;;;;;;;;;;11.40;100.00;102396.34;4927332;29;19978;-96
2023/10/06 03:44:04;;;;;;;;;;;;;;;11.40;100.00;102390.25;4927273;29;19960;-96
2023/10/06 03:46:46;;;;;;;;;;;;;;;11.38;100.00;102381.44;4927180;29;19911;-96
2023/10/06 03:49:18;;;;;;;;;;;;;;;11.36;100.00;102383.97;4926249;29;19915;-96
2023/10/06 03:51:44;;;;;;;;;;;;;;;11.36;100.00;102377.88;4926280;29;20424;-96
2023/10/06 03:54:12;;;;;;;;;;;;;;;11.35;100.00;102374.34;4925399;29;19958;-96
2023/10/06 03:56:38;;;;;;;;;;;;;;;11.36;100.00;102370.03;4925713;29;19914;-96
2023/10/06 03:59:12;;;;;;;;;;;;;;;11.35;100.00;102366.53;4925504;29;19944;-96
2023/10/06 04:01:40;;;;;;;;;;;;;;;11.36;100.00;102357.00;4925190;29;19970;-96
2023/10/06 04:04:07;;;;;;;;;;;;;;;11.34;100.00;102356.00;4926703;29;19998;-96
2023/10/06 04:06:35;;;;;;;;;;;;;;;11.31;100.00;102357.69;4925477;29;19922;-96
2023/10/06 04:09:00;;;;;;;;;;;;;;;11.28;100.00;102360.16;4924872;29;19989;-96
2023/10/06 04:11:34;;;;;;;;;;;;;;;11.26;100.00;102356.56;4925990;29;19923;-96
2023/10/06 04:14:05;;;;;;;;;;;;;;;11.24;100.00;102349.47;4927375;29;19914;-96
2023/10/06 04:16:33;;;;;;;;;;;;;;;11.23;100.00;102355.53;4926940;29;19921;-96
2023/10/06 04:19:03;;;;;;;;;;;;;;;11.22;100.00;102357.25;4925707;29;19978;-96
2023/10/06 04:21:31;;;;;;;;;;;;;;;11.21;100.00;102352.88;4924930;29;19918;-96
2023/10/06 04:24:00;;;;;;;;;;;;;;;11.20;100.00;102358.91;4926176;29;20292;-96
2023/10/06 04:26:25;;;;;;;;;;;;;;;11.19;100.00;102367.53;4926013;29;19922;-96
2023/10/06 04:28:51;;;;;;;;;;;;;;;11.17;100.00;102366.59;4925520;29;19943;-96
2023/10/06 04:31:19;;;;;;;;;;;;;;;11.16;100.00;102369.13;4925147;29;19923;-96
2023/10/06 04:33:47;;;;;;;;;;;;;;;11.16;100.00;102369.13;4925799;29;20432;-96
2023/10/06 04:36:20;;;;;;;;;;;;;;;11.15;100.00;102368.22;4925596;29;19934;-96
2023/10/06 04:38:51;;;;;;;;;;;;;;;11.15;100.00;102365.59;4924281;29;19914;-96
2023/10/06 04:41:20;;;;;;;;;;;;;;;11.14;100.00;102351.69;4924723;29;19991;-96
2023/10/06 04:43:45;;;;;;;;;;;;;;;11.13;100.00;102362.06;4924930;29;19919;-96
2023/10/06 04:46:11;;;;;;;;;;;;;;;11.13;100.00;102346.41;4924317;29;20028;-96
2023/10/06 04:48:39;;;;;;;;;;;;;;;11.12;100.00;102348.13;4924919;29;19950;-96
2023/10/06 04:51:12;;;;;;;;;;;;;;;11.12;100.00;102342.00;4926149;29;20369;-96
2023/10/06 04:53:45;;;;;;;;;;;;;;;11.11;100.00;102343.72;4925319;29;19965;-96
2023/10/06 04:56:10;;;;;;;;;;;;;;;11.10;100.00;102354.09;4924124;29;19911;-96
2023/10/06 04:58:42;;;;;;;;;;;;;;;11.10;100.00;102346.25;4902548;29;20370;-96
2023/10/06 05:01:11;;;;;;;;;;;;;;;11.10;100.00;102349.75;4923774;29;20292;-96
2023/10/06 05:03:45;;;;;;;;;;;;;;;11.11;100.00;102346.34;4923798;29;19926;-96
2023/10/06 05:06:22;;;;;;;;;;;;;;;11.11;100.00;102351.56;4924962;29;19915;-96
2023/10/06 05:08:51;;;;;;;;;;;;;;;11.08;100.00;102343.59;4924867;29;19915;-96
2023/10/06 05:11:17;;;;;;;;;;;;;;;11.07;100.00;102348.72;4923679;29;19915;-96
2023/10/06 05:13:43;;;;;;;;;;;;;;;11.05;100.00;102346.06;4923163;29;20473;-95
2023/10/06 05:16:11;;;;;;;;;;;;;;;11.05;100.00;102345.16;4923477;29;19950;-96
2023/10/06 05:18:38;;;;;;;;;;;;;;;11.06;100.00;102342.59;4923774;29;19915;-96
2023/10/06 05:21:06;;;;;;;;;;;;;;;11.06;100.00;102340.00;4923353;29;19998;-96
2023/10/06 05:23:34;;;;;;;;;;;;;;;11.08;100.00;102340.97;4924248;29;19919;-96
2023/10/06 05:26:02;;;;;;;;;;;;;;;11.09;100.00;102341.84;4923089;29;20400;-96
2023/10/06 05:28:31;;;;;;;;;;;;;;;11.10;100.00;102346.25;4923987;29;20288;-96
2023/10/06 05:30:59;;;;;;;;;;;;;;;11.09;100.00;102336.63;4922742;29;19974;-96
2023/10/06 05:33:28;;;;;;;;;;;;;;;11.09;100.00;102342.78;4923532;29;19919;-96
2023/10/06 05:36:09;;;;;;;;;;;;;;;11.11;100.00;102348.06;4922943;29;19942;-96
2023/10/06 05:38:52;;;;;;;;;;;;;;;11.10;100.00;102351.47;4923304;29;20005;-96
2023/10/06 05:41:17;;;;;;;;;;;;;;;11.09;100.00;102348.00;4923430;29;19926;-96
2023/10/06 05:43:45;;;;;;;;;;;;;;;11.09;100.00;102342.78;4923499;29;19915;-95
2023/10/06 05:46:14;;;;;;;;;;;;;;;11.09;100.00;102341.84;4922837;29;20288;-96
2023/10/06 05:48:41;;;;;;;;;;;;;;;11.07;100.00;102339.19;4922608;29;19914;-96
2023/10/06 05:51:18;;;;;;;;;;;;;;;11.07;100.00;102353.94;4922410;29;19922;-96
2023/10/06 05:53:56;;;;;;;;;;;;;;;11.06;100.00;102346.94;4922032;29;20384;-96
2023/10/06 05:56:34;;;;;;;;;;;;;;;11.06;100.00;102349.56;4920772;29;19915;-95
2023/10/06 05:59:02;;;;;;;;;;;;;;;11.05;100.00;102345.16;4922762;29;20066;-96
2023/10/06 06:01:31;;;;;;;;;;;;;;;11.04;100.00;102343.38;4921966;29;19919;-96
2023/10/06 06:04:09;;;;;;;;;;;;;;;11.05;100.00;102337.31;4922867;29;20045;-96
2023/10/06 06:06:37;;;;;;;;;;;;;;;11.03;100.00;102345.06;4923352;29;20296;-96
2023/10/06 06:09:14;;;;;;;;;;;;;;;11.05;100.00;102333.03;4923572;29;19919;-96
2023/10/06 06:11:40;;;;;;;;;;;;;;;11.06;100.00;102339.13;4926261;29;19965;-96
2023/10/06 06:14:17;;;;;;;;;;;;;;;11.06;100.00;102341.72;4926271;29;20337;-96
2023/10/06 06:16:45;;;;;;;;;;;;;;;11.07;100.00;102341.78;4925758;29;19940;-96
2023/10/06 06:19:11;;;;;;;;;;;;;;;11.09;100.00;102349.69;4925992;29;19915;-96
2023/10/06 06:22:00;;;;;;;;;;;;;;;11.06;100.00;102352.16;4925811;29;19919;-96
2023/10/06 06:24:30;;;;;;;;;;;;;;;11.08;100.00;102354.03;4926615;29;19922;-96
2023/10/06 06:27:01;;;;;;;;;;;;;;;11.11;100.00;102348.94;4925897;29;19921;-96
2023/10/06 06:29:27;;;;;;;;;;;;;;;11.13;100.00;102349.00;4926251;29;19919;-96
2023/10/06 06:31:55;;;;;;;;;;;;;;;11.15;100.00;102352.56;4926838;29;19993;-96
2023/10/06 06:34:41;;;;;;;;;;;;;;;11.19;100.00;102359.72;4926805;29;19953;-96
2023/10/06 06:37:13;;;;;;;;;;;;;;;11.21;100.00;102355.47;4926184;29;19937;-96
2023/10/06 06:39:44;;;;;;;;;;;;;;;11.23;100.00;102356.44;4926730;29;19922;-96
2023/10/06 06:42:15;;;;;;;;;;;;;;;11.27;100.00;102353.13;4925442;29;20361;-96
2023/10/06 06:44:47;;;;;;;;;;;;;;;11.29;100.00;102351.47;4926409;29;19915;-96
2023/10/06 06:47:16;;;;;;;;;;;;;;;11.31;100.00;102354.16;4926163;29;19919;-96
2023/10/06 06:49:44;;;;;;;;;;;;;;;11.35;100.00;102352.59;4928076;29;19918;-96
2023/10/06 06:52:21;;;;;;;;;;;;;;;11.34;100.00;102353.41;4927256;29;20373;-96
2023/10/06 06:54:54;;;;;;;;;;;;;;;11.36;100.00;102357.00;4926961;29;19915;-96
2023/10/06 06:57:31;;;;;;;;;;;;;;;11.37;100.00;102358.75;4924922;29;19939;-96
2023/10/06 06:59:57;;;;;;;;;;;;;;;11.37;100.00;102353.53;4926108;29;19997;-96
2023/10/06 07:02:22;;;;;;;;;;;;;;;11.37;100.00;102349.22;4927597;29;20424;-96
2023/10/06 07:04:47;;;;;;;;;;;;;;;11.39;100.00;102349.28;4927373;29;19953;-96
2023/10/06 07:07:16;;;;;;;;;;;;;;;11.44;100.00;102342.53;4927514;29;19993;-96
2023/10/06 07:09:46;;;;;;;;;;;;;;;11.43;100.00;102339.06;4927607;29;19915;-96
2023/10/06 07:12:37;;;;;;;;;;;;;;;11.47;100.00;102340.97;4928483;29;19991;-96
2023/10/06 07:15:03;;;;;;;;;;;;;;;11.49;100.00;102335.81;4927217;29;19922;-96
2023/10/06 07:17:34;;;;;;;;;;;;;;;11.52;100.00;102343.78;4927111;29;19915;-96
2023/10/06 07:20:09;;;;;;;;;;;;;;;11.54;100.00;102343.84;4925688;29;19915;-96
2023/10/06 07:22:34;;;;;;;;;;;;;;;11.56;100.00;102345.72;4924672;29;19926;-96
2023/10/06 07:25:02;;;;;;;;;;;;;;;11.58;100.00;102349.25;4927046;29;20285;-96
2023/10/06 07:27:32;;;;;;;;;;;;;;;11.59;100.00;102353.66;4926165;29;20369;-96
2023/10/06 07:30:04;;;;;;;;;;;;;;;11.64;100.00;102352.16;4925201;29;19922;-96
2023/10/06 07:32:31;;;;;;;;;;;;;;;11.68;100.00;102347.94;4926079;29;19923;-96
2023/10/06 07:34:56;;;;;;;;;;;;;;;11.71;100.00;102353.31;4924511;29;19919;-96
2023/10/06 07:37:24;;;;;;;;;;;;;;;11.76;100.00;102359.63;4925478;29;19925;-96
2023/10/06 07:39:49;;;;;;;;;;;;;;;11.81;100.00;102367.66;4927500;29;20009;-96
2023/10/06 07:42:24;;;;;;;;;;;;;;;11.87;100.00;102364.41;4924832;29;19922;-96
2023/10/06 07:44:52;;;;;;;;;;;;;;;11.93;100.00;102368.19;4926187;29;19915;-96
2023/10/06 07:47:24;;;;;;;;;;;;;;;11.97;100.00;102370.13;4925550;29;19984;-96
2023/10/06 07:49:52;;;;;;;;;;;;;;;12.06;100.00;102373.97;4925833;29;19922;-96
2023/10/06 07:52:18;;;;;;;;;;;;;;;12.11;100.00;102377.69;4926232;29;19915;-96
2023/10/06 07:54:49;;;;;;;;;;;;;;;12.20;100.00;102382.38;4924711;29;19922;-96
2023/10/06 07:57:19;;;;;;;;;;;;;;;12.23;100.00;102385.13;4925745;29;19915;-96
2023/10/06 07:59:47;;;;;;;;;;;;;;;12.28;100.00;102391.41;4925087;29;19962;-96
2023/10/06 08:02:18;;;;;;;;;;;;;;;12.34;100.00;102397.81;4924043;29;20002;-96
2023/10/06 08:05:00;;;;;;;;;;;;;;;12.39;100.00;102398.00;4925102;29;19951;-96
2023/10/06 08:07:31;;;;;;;;;;;;;;;12.46;100.00;102392.19;4924534;29;20005;-96
2023/10/06 08:09:58;;;;;;;;;;;;;;;12.53;100.00;102382.88;4926254;29;19950;-96
2023/10/06 08:12:24;;;;;;;;;;;;;;;12.60;100.00;102373.53;4925037;29;19939;-96
2023/10/06 08:14:50;;;;;;;;;;;;;;;12.65;100.00;102369.41;4923543;29;20249;-96
2023/10/06 08:17:21;;;;;;;;;;;;;;;12.83;100.00;102374.44;4925256;29;19915;-96
2023/10/06 08:19:47;;;;;;;;;;;;;;;12.86;100.00;102378.09;4925262;29;19915;-96
2023/10/06 08:22:16;;;;;;;;;;;;;;;12.96;100.00;102379.34;4929431;29;19970;-96
2023/10/06 08:24:44;;;;;;;;;;;;;;;13.07;100.00;102377.13;4925754;29;19963;-96
2023/10/06 08:27:11;;;;;;;;;;;;;;;13.27;100.00;102380.50;4924638;29;19918;-96
2023/10/06 08:29:37;;;;;;;;;;;;;;;13.36;99.94;102386.09;4924674;29;19915;-96
2023/10/06 08:32:02;;;;;;;;;;;;;;;13.51;99.34;102380.53;4926218;29;19934;-96
2023/10/06 08:34:39;;;;;;;;;;;;;;;13.57;99.71;102388.63;4924416;29;19949;-96
2023/10/06 08:37:14;;;;;;;;;;;;;;;13.67;99.81;102379.38;4930320;29;19974;-96
2023/10/06 08:39:45;;;;;;;;;;;;;;;13.74;100.00;102378.75;4942963;29;19907;-96
2023/10/06 08:42:46;;;;;;;;;;;;;;;13.83;100.00;102370.31;4958791;29;19952;-96
2023/10/06 08:45:32;;;;;;;;;;;;;;;13.94;99.74;102378.53;4959661;29;19962;-96
2023/10/06 08:48:10;;;;;;;;;;;;;;;14.10;98.92;102379.94;4942278;29;19902;-96
2023/10/06 08:50:49;;;;;;;;;;;;;;;14.17;98.79;102376.69;4946296;29;19958;-96
2023/10/06 08:53:25;;;;;;;;;;;;;;;14.26;98.81;102379.63;4925320;29;20452;-96
2023/10/06 08:55:51;;;;;;;;;;;;;;;14.37;98.33;102376.47;4926528;29;19915;-96
2023/10/06 08:58:17;;;;;;;;;;;;;;;14.43;98.32;102379.28;4925677;29;19914;-96
2023/10/06 09:00:46;;;;;;;;;;;;;;;14.51;97.99;102384.78;4925449;29;19919;-96
2023/10/06 09:03:17;;;;;;;;;;;;;;;14.60;97.98;102379.84;4925284;29;19915;-96
2023/10/06 09:05:50;;;;;;;;;;;;;;;14.65;97.76;102393.13;4922908;29;19915;-96
2023/10/06 09:08:21;;;;;;;;;;;;;;;14.71;97.14;102393.31;4921773;29;19915;-96
2023/10/06 09:10:54;;;;;;;;;;;;;;;14.95;94.89;102393.19;4923652;29;19946;-95
2023/10/06 09:13:23;;;;;;;;;;;;;;;14.89;95.68;102400.88;4923496;29;19914;-96
2023/10/06 09:15:59;;;;;;;;;;;;;;;14.91;96.06;102396.56;4922565;29;19911;-96
2023/10/06 09:18:28;;;;;;;;;;;;;;;14.97;95.77;102396.75;4922496;29;19978;-96
2023/10/06 09:21:10;;;;;;;;;;;;;;;15.02;96.52;102397.78;4921909;29;19919;-96
2023/10/06 09:23:41;;;;;;;;;;;;;;;15.06;96.60;102390.88;4921744;29;20365;-96
2023/10/06 09:26:11;;;;;;;;;;;;;;;15.19;95.46;102384.25;4921133;29;19926;-96
2023/10/06 09:28:52;;;;;;;;;;;;;;;15.22;94.91;102366.88;4920675;29;19914;-96
2023/10/06 09:34:24;;;;;;;;;;;;;;;15.32;95.16;102359.25;4926780;29;19919;-96
2023/10/06 09:36:53;;;;;;;;;;;;;;;15.36;95.15;102359.38;4926236;29;20017;-96
2023/10/06 09:39:39;;;;;;;;;;;;;;;15.43;95.41;102355.19;4923348;29;19915;-96
2023/10/06 09:42:08;;;;;;;;;;;;;;;15.58;94.27;102359.97;4923435;29;20293;-96
2023/10/06 09:44:41;;;;;;;;;;;;;;;15.63;94.80;102354.00;4922510;29;19915;-96
2023/10/06 09:47:25;;;;;;;;;;;;;;;15.73;93.29;102360.38;4924225;29;20006;-96
2023/10/06 09:49:51;;;;;;;;;;;;;;;15.77;94.06;102364.88;4923105;29;19951;-96
2023/10/06 09:52:21;;;;;;;;;;;;;;;15.84;94.06;102351.94;4923900;29;19970;-96
2023/10/06 09:54:47;;;;;;;;;;;;;;;15.87;94.39;102352.00;4922784;29;19915;-96
2023/10/06 09:57:24;;;;;;;;;;;;;;;15.91;93.47;102343.34;4923720;29;19934;-96
2023/10/06 09:59:57;;;;;;;;;;;;;;;15.97;92.88;102347.03;4924418;29;19993;-96
2023/10/06 10:02:24;;;;;;;;;;;;;;;16.18;91.10;102356.31;4924737;29;19923;-96
2023/10/06 10:04:54;;;;;;;;;;;;;;;16.13;92.30;102348.31;4924082;29;20326;-96
2023/10/06 10:07:26;;;;;;;;;;;;;;;16.26;92.10;102348.59;4924230;29;19914;-96
2023/10/06 10:09:52;;;;;;;;;;;;;;;16.36;92.38;102350.59;4923523;29;19994;-96
2023/10/06 10:12:34;;;;;;;;;;;;;;;16.52;92.55;102349.22;4924145;29;19914;-96
2023/10/06 10:15:23;;;;;;;;;;;;;;;16.71;92.35;102331.22;4922788;29;20011;-96
2023/10/06 10:17:48;;;;;;;;;;;;;;;16.88;91.05;102336.88;4896209;29;19918;-96
2023/10/06 10:20:25;;;;;;;;;;;;;;;16.93;90.34;102356.28;4923027;29;19915;-96
2023/10/06 10:22:54;;;;;;;;;;;;;;;17.06;86.85;102353.09;4924180;29;20274;-96
2023/10/06 10:25:19;;;;;;;;;;;;;;;16.90;89.10;102340.44;4923589;29;19915;-96
2023/10/06 10:28:09;;;;;;;;;;;;;;;16.96;88.56;102344.09;4921273;29;20420;-96
2023/10/06 10:30:52;;;;;;;;;;;;;;;16.87;88.77;102330.69;4922147;29;19915;-96
2023/10/06 10:33:29;;;;;;;;;;;;;;;16.90;88.95;102343.97;4922584;29;20320;-96
2023/10/06 10:36:14;;;;;;;;;;;;;;;17.03;88.18;102334.56;4921432;29;20013;-96
2023/10/06 10:38:48;;;;;;;;;;;;;;;17.14;88.17;102335.66;4924443;29;19915;-96
2023/10/06 10:41:17;;;;;;;;;;;;;;;17.18;88.03;102326.09;4924023;29;19923;-96
2023/10/06 10:43:48;;;;;;;;;;;;;;;17.18;87.76;102323.47;4924017;29;19926;-96
2023/10/06 10:46:13;;;;;;;;;;;;;;;17.13;87.72;102320.75;4922012;29;19938;-96
2023/10/06 10:48:52;;;;;;;;;;;;;;;17.06;88.26;102318.84;4923629;29;20365;-96
2023/10/06 10:51:24;;;;;;;;;;;;;;;17.12;89.07;102321.59;4924165;29;19994;-96
2023/10/06 10:53:59;;;;;;;;;;;;;;;17.36;88.03;102321.16;4922389;29;20013;-96
2023/10/06 10:56:34;;;;;;;;;;;;;;;17.52;86.50;102326.75;4925723;29;19983;-96
2023/10/06 10:59:00;;;;;;;;;;;;;;;17.55;87.21;102321.53;4928663;29;19926;-96
2023/10/06 11:01:37;;;;;;;;;;;;;;;17.65;87.12;102328.72;4928840;29;19918;-96
2023/10/06 11:04:18;;;;;;;;;;;;;;;17.94;86.63;102327.50;4927805;29;19931;-96
2023/10/06 11:06:50;;;;;;;;;;;;;;;18.20;82.58;102328.81;4928698;29;19915;-96
2023/10/06 11:09:37;;;;;;;;;;;;;;;18.11;83.71;102328.69;4929317;29;19915;-96
2023/10/06 11:12:21;;;;;;;;;;;;;;;18.14;83.47;102333.13;4928728;29;19977;-96
2023/10/06 11:15:13;;;;;;;;;;;;;;;18.03;83.44;102338.22;4928832;29;19957;-96
2023/10/06 11:17:40;;;;;;;;;;;;;;;17.98;83.20;102331.97;4927482;29;19940;-96
2023/10/06 11:20:13;;;;;;;;;;;;;;;17.98;81.73;102339.91;4927481;29;20035;-96
2023/10/06 11:22:45;;;;;;;;;;;;;;;17.94;81.40;102324.88;4928136;29;20650;-96
2023/10/06 11:25:13;;;;;;;;;;;;;;;17.85;82.84;102329.09;4927398;29;19915;-96
2023/10/06 11:27:55;;;;;;;;;;;;;;;17.87;83.42;102330.03;4928925;29;19915;-96
2023/10/06 11:30:28;;;;;;;;;;;;;;;17.95;81.77;102332.81;4928356;29;20269;-96
2023/10/06 11:33:02;;;;;;;;;;;;;;;17.99;81.22;102323.22;4927582;29;19923;-96
2023/10/06 11:35:38;;;;;;;;;;;;;;;17.79;83.06;102320.22;4927979;29;19915;-96
2023/10/06 11:38:10;;;;;;;;;;;;;;;17.80;83.98;102312.31;4926765;29;19923;-96
2023/10/06 11:40:36;;;;;;;;;;;;;;;17.90;84.54;102322.19;4925090;29;20396;-96
2023/10/06 11:43:21;;;;;;;;;;;;;;;18.02;83.93;102313.59;4926041;29;19930;-96
2023/10/06 11:45:46;;;;;;;;;;;;;;;18.16;81.75;102316.47;4926107;29;19937;-96
2023/10/06 11:48:42;;;;;;;;;;;;;;;18.14;82.64;102310.25;4926644;29;19911;-96
2023/10/06 11:51:12;;;;;;;;;;;;;;;18.15;81.98;102304.13;4918187;29;20381;-96
2023/10/06 11:53:39;;;;;;;;;;;;;;;18.18;82.04;102298.88;4925291;29;19938;-96
2023/10/06 11:56:24;;;;;;;;;;;;;;;18.18;83.48;102288.34;4925372;29;19915;-96
2023/10/06 11:58:49;;;;;;;;;;;;;;;18.22;84.08;102289.28;4927877;29;19969;-96
2023/10/06 12:01:36;;;;;;;;;;;;;;;18.26;84.58;102288.44;4924575;29;19919;-96
2023/10/06 12:04:04;;;;;;;;;;;;;;;18.46;82.68;102283.47;4926485;29;19914;-96
2023/10/06 12:06:42;;;;;;;;;;;;;;;18.49;83.20;102288.78;4926510;29;19914;-96
2023/10/06 12:09:24;;;;;;;;;;;;;;;18.66;81.25;102285.50;4927496;29;19974;-96
2023/10/06 12:11:53;;;;;;;;;;;;;;;18.73;79.94;102282.94;4927679;29;20002;-96
2023/10/06 12:14:19;;;;;;;;;;;;;;;18.85;78.65;102274.28;4926527;29;19914;-96
2023/10/06 12:16:46;;;;;;;;;;;;;;;18.90;78.03;102275.28;4927494;29;19915;-96
2023/10/06 12:19:17;;;;;;;;;;;;;;;18.85;79.62;102291.91;4925640;29;19914;-96
2023/10/06 12:21:43;;;;;;;;;;;;;;;18.96;77.33;102290.31;4927015;29;19919;-96
2023/10/06 12:24:11;;;;;;;;;;;;;;;18.89;79.92;102289.34;4924610;29;19929;-96
2023/10/06 12:26:37;;;;;;;;;;;;;;;19.03;79.49;102273.66;4923156;29;19911;-96
2023/10/06 12:29:03;;;;;;;;;;;;;;;19.24;79.94;102270.34;4925367;29;19920;-96
2023/10/06 12:31:28;;;;;;;;;;;;;;;19.51;77.99;102262.69;4925546;29;20365;-96
2023/10/06 12:34:03;;;;;;;;;;;;;;;19.75;75.23;102264.66;4925951;29;20042;-96
2023/10/06 12:36:32;;;;;;;;;;;;;;;19.87;74.83;102262.16;4926215;29;20353;-96
2023/10/06 12:39:00;;;;;;;;;;;;;;;20.11;73.49;102264.06;4926140;29;19915;-96
2023/10/06 12:41:26;;;;;;;;;;;;;;;20.02;75.26;102268.44;4925635;29;20373;-96
2023/10/06 12:44:04;;;;;;;;;;;;;;;20.09;75.38;102259.66;4923732;29;19921;-96
2023/10/06 12:46:33;;;;;;;;;;;;;;;20.29;71.04;102243.88;4923652;29;19915;-96
2023/10/06 12:49:06;;;;;;;;;;;;;;;20.22;74.52;102244.72;4924741;29;19922;-96
2023/10/06 12:51:38;;;;;;;;;;;;;;;20.49;70.14;102249.28;4924228;29;19973;-96
2023/10/06 12:54:25;;;;;;;;;;;;;;;20.48;68.18;102247.53;4923671;29;19915;-96
2023/10/06 12:56:51;;;;;;;;;;;;;;;20.43;70.25;102251.91;4923804;29;20388;-96
2023/10/06 12:59:16;;;;;;;;;;;;;;;20.51;68.00;102260.78;4924194;29;19915;-96
2023/10/06 13:01:44;;;;;;;;;;;;;;;20.42;68.05;102256.34;4923563;29;19918;-96
2023/10/06 13:04:13;;;;;;;;;;;;;;;20.26;69.78;102251.81;4923618;29;19918;-96
2023/10/06 13:06:38;;;;;;;;;;;;;;;20.29;68.10;102243.88;4925949;29;19915;-96
2023/10/06 13:09:08;;;;;;;;;;;;;;;20.20;69.11;102250.00;4926225;29;19921;-96
2023/10/06 13:11:34;;;;;;;;;;;;;;;20.21;69.61;102243.84;4923119;29;19915;-96
2023/10/06 13:14:02;;;;;;;;;;;;;;;20.15;70.52;102246.47;4924335;29;20348;-96
2023/10/06 13:16:29;;;;;;;;;;;;;;;20.32;68.27;102238.63;4923827;29;20487;-96
2023/10/06 13:19:01;;;;;;;;;;;;;;;20.13;70.39;102238.53;4923789;29;19942;-96
2023/10/06 13:21:26;;;;;;;;;;;;;;;20.21;70.23;102235.03;4921260;29;19962;-96
2023/10/06 13:23:53;;;;;;;;;;;;;;;20.17;71.08;102233.25;4923116;29;20005;-96
2023/10/06 13:26:20;;;;;;;;;;;;;;;20.26;70.96;102226.25;4922611;29;19915;-96
2023/10/06 13:28:50;;;;;;;;;;;;;;;20.18;71.92;102227.09;4921671;29;19915;-96
2023/10/06 13:31:16;;;;;;;;;;;;;;;20.10;70.86;102227.94;4922343;29;19914;-96
2023/10/06 13:33:45;;;;;;;;;;;;;;;20.08;71.69;102231.44;4923087;29;19919;-96
2023/10/06 13:36:17;;;;;;;;;;;;;;;20.17;71.63;102218.25;4921697;29;19923;-96
2023/10/06 13:38:42;;;;;;;;;;;;;;;20.35;71.60;102221.88;4920718;29;19961;-96
2023/10/06 13:41:11;;;;;;;;;;;;;;;20.47;70.92;102216.63;4920718;29;19918;-96
2023/10/06 13:43:38;;;;;;;;;;;;;;;20.44;70.81;102212.22;4920715;29;20357;-96
2023/10/06 13:46:06;;;;;;;;;;;;;;;20.54;72.01;102213.13;4920721;29;19939;-96
2023/10/06 13:48:37;;;;;;;;;;;;;;;20.74;70.84;102215.00;4922403;29;19922;-97
2023/10/06 13:51:02;;;;;;;;;;;;;;;20.78;70.39;102216.78;4921684;29;19921;-96
2023/10/06 13:53:30;;;;;;;;;;;;;;;20.91;68.23;102221.22;4920852;29;20009;-96
2023/10/06 13:55:59;;;;;;;;;;;;;;;20.98;68.10;102223.00;4922717;29;19915;-96
2023/10/06 13:58:30;;;;;;;;;;;;;;;21.05;67.69;102213.31;4920997;29;20377;-96
2023/10/06 14:00:57;;;;;;;;;;;;;;;20.97;69.51;102205.38;4920013;29;19915;-96
2023/10/06 14:03:29;;;;;;;;;;;;;;;21.13;68.34;102211.56;4921946;29;19963;-96
2023/10/06 14:05:57;;;;;;;;;;;;;;;21.13;67.71;102206.28;4923095;29;20348;-96
2023/10/06 14:08:28;;;;;;;;;;;;;;;21.00;67.54;102210.66;4923516;29;19922;-96
2023/10/06 14:11:09;;;;;;;;;;;;;;;20.99;68.82;102206.25;4922251;29;19939;-96
2023/10/06 14:13:34;;;;;;;;;;;;;;;21.11;68.79;102200.06;4921976;29;19921;-96